Aérodrome :
LOGIN :

S'inscrire | Disclaimer

   EN    FR    IT 

 










Légende :    VFR   VFR Marginal   IFR   IFR Intensif   IFR Très Intensif
Visi : 
Plafond : 
>= 8 km
>= 3000ft
5 à 8 km
1000 à 3000 ft
1500m à 5 km
500 à 1000 ft
800 à 1500m
200 à 500 ft
< 800m
< 200 ft
Symboles :   Orages  Brouillard  Fortes neiges  Fortes précipitations  Vent > 20 kt
SIGMETs :   Divers  Orages  Givrage  Turbulence  Onde Orograph.  Cendres Volcan.







- Altitude de l'aérodrome : 1046 ft
- Code IATA : NUE


EDDN - Nuremberg

DERNIER METAR :
  • 131550Z 24005KT CAVOK 10/07 Q1029 NOSIG

METARs EXPIRÉS :
  • 131520Z 24008KT 9999 FEW025 11/07 Q1028 NOSIG
  • 131450Z 23008KT 9999 FEW025 11/08 Q1028 NOSIG
  • 131420Z 24011KT 9999 SCT025 BKN048 11/08 Q1028 NOSIG
  • 131350Z 25011KT 9999 FEW016 BKN048 12/08 Q1027 NOSIG
  • 131320Z 27012KT 9999 FEW016 SCT020 12/08 Q1027 NOSIG
  • 131250Z 27011KT 9999 FEW014 BKN020 12/09 Q1027 NOSIG

TAF AMD TAF EDDN
Valide du 13 à 12h jusqu'au 14 à 12h UTC


131217Z 1312/1412 26005KT 9999 FEW010 BKN040
PROB30
TEMPO 1312/1314 BKN012
BECMG 1318/1320 12005KT
PROB30
TEMPO 1400/1408 4000 BR
Pas de NOTAMs connus pour ce terrain.



MET'MAP, la Météo Aéronautique d'un coup d'oeil ! - Copyright ORBIFLY Décembre 2007 - Disclaimer

ORBIFLY MET'MAP TEAM :

Programmation & Développement : Alexandra Zaïnal
Conception & Développement : Baudouin d'Aumeries
Co-Programmation & Développement : Marc-Olivier Méhu
Soutien technique & logistique : Manuel Goepfert

Contact : metmap@orbifly.com




SOURCES & CREDITS :

   NOAA